sensor_id;sensor_type;location;lat;lon;timestamp;pressure;altitude;pressure_sealevel;temperature;humidity
7018;BME280;3549;42.162;24.726;2023-05-01T00:01:59;47630.56;;;-141.97;82.41
7018;BME280;3549;42.162;24.726;2023-05-01T00:04:26;47603.66;;;-141.97;82.33
7018;BME280;3549;42.162;24.726;2023-05-01T00:06:51;47599.81;;;-141.97;81.57
7018;BME280;3549;42.162;24.726;2023-05-01T00:09:16;47647.84;;;-141.97;81.05
7018;BME280;3549;42.162;24.726;2023-05-01T00:11:42;47615.19;;;-141.97;81.03
7018;BME280;3549;42.162;24.726;2023-05-01T00:14:08;47619.03;;;-141.97;80.71
7018;BME280;3549;42.162;24.726;2023-05-01T00:16:33;47638.25;;;-141.97;80.48
7018;BME280;3549;42.162;24.726;2023-05-01T00:19:00;47617.09;;;-141.97;80.96
7018;BME280;3549;42.162;24.726;2023-05-01T00:21:26;47619.03;;;-141.97;81.49
7018;BME280;3549;42.162;24.726;2023-05-01T00:23:52;47645.94;;;-141.97;81.76
7018;BME280;3549;42.162;24.726;2023-05-01T00:26:18;47619.03;;;-141.97;81.54
7018;BME280;3549;42.162;24.726;2023-05-01T00:28:43;47636.31;;;-141.97;81.21
7018;BME280;3549;42.162;24.726;2023-05-01T00:31:09;47615.19;;;-141.97;81.23
7018;BME280;3549;42.162;24.726;2023-05-01T00:33:34;47722.81;;;-141.97;80.91
7018;BME280;3549;42.162;24.726;2023-05-01T00:36:00;47607.50;;;-141.97;80.30
7018;BME280;3549;42.162;24.726;2023-05-01T00:38:25;47607.50;;;-141.97;80.07
7018;BME280;3549;42.162;24.726;2023-05-01T00:40:51;47626.72;;;-141.97;79.74
7018;BME280;3549;42.162;24.726;2023-05-01T00:43:16;47634.41;;;-141.97;80.07
7018;BME280;3549;42.162;24.726;2023-05-01T00:45:44;47628.63;;;-141.97;80.74
7018;BME280;3549;42.162;24.726;2023-05-01T00:48:13;47624.78;;;-141.97;81.25
7018;BME280;3549;42.162;24.726;2023-05-01T00:50:39;47599.81;;;-141.97;81.40
7018;BME280;3549;42.162;24.726;2023-05-01T00:53:05;47624.78;;;-141.97;82.29
7018;BME280;3549;42.162;24.726;2023-05-01T00:55:31;47651.69;;;-141.97;82.58
7018;BME280;3549;42.162;24.726;2023-05-01T00:57:58;47638.25;;;-141.97;82.86
7018;BME280;3549;42.162;24.726;2023-05-01T01:00:24;47603.66;;;-141.97;83.02
7018;BME280;3549;42.162;24.726;2023-05-01T01:02:50;47622.88;;;-141.97;83.27
7018;BME280;3549;42.162;24.726;2023-05-01T01:05:16;47634.41;;;-141.97;83.50
7018;BME280;3549;42.162;24.726;2023-05-01T01:07:55;47651.69;;;-141.97;83.75
7018;BME280;3549;42.162;24.726;2023-05-01T01:13:18;47603.66;;;-141.97;83.74
7018;BME280;3549;42.162;24.726;2023-05-01T01:18:51;47642.09;;;-141.97;84.85
7018;BME280;3549;42.162;24.726;2023-05-01T01:21:38;47657.47;;;-141.97;84.38
7018;BME280;3549;42.162;24.726;2023-05-01T01:29:54;47799.72;;;-141.97;84.32
7018;BME280;3549;42.162;24.726;2023-05-01T01:35:17;47647.84;;;-141.97;84.91
7018;BME280;3549;42.162;24.726;2023-05-01T01:37:50;47718.97;;;-141.97;86.63
7018;BME280;3549;42.162;24.726;2023-05-01T01:40:24;47630.56;;;-141.97;87.40
7018;BME280;3549;42.162;24.726;2023-05-01T01:43:11;47630.56;;;-141.97;87.47
7018;BME280;3549;42.162;24.726;2023-05-01T01:45:42;47634.41;;;-141.97;87.11
7018;BME280;3549;42.162;24.726;2023-05-01T01:48:13;47649.78;;;-141.97;86.52
7018;BME280;3549;42.162;24.726;2023-05-01T01:50:41;47634.41;;;-141.97;86.80
7018;BME280;3549;42.162;24.726;2023-05-01T01:53:10;47630.56;;;-141.97;87.71
7018;BME280;3549;42.162;24.726;2023-05-01T01:55:38;47644.00;;;-141.97;87.40
7018;BME280;3549;42.162;24.726;2023-05-01T01:58:05;47607.50;;;-141.97;87.09
7018;BME280;3549;42.162;24.726;2023-05-01T02:00:34;47670.91;;;-141.97;86.60
7018;BME280;3549;42.162;24.726;2023-05-01T02:03:00;47672.84;;;-141.97;85.78
7018;BME280;3549;42.162;24.726;2023-05-01T02:05:26;47680.53;;;-141.97;85.37
7018;BME280;3549;42.162;24.726;2023-05-01T02:07:53;47657.47;;;-141.97;85.49
7018;BME280;3549;42.162;24.726;2023-05-01T02:10:21;47638.25;;;-141.97;85.51
7018;BME280;3549;42.162;24.726;2023-05-01T02:12:50;47649.78;;;-141.97;86.38
7018;BME280;3549;42.162;24.726;2023-05-01T02:15:17;47642.09;;;-141.97;85.86
7018;BME280;3549;42.162;24.726;2023-05-01T02:17:43;47661.31;;;-141.97;85.74
7018;BME280;3549;42.162;24.726;2023-05-01T02:20:10;47615.19;;;-141.97;85.69
7018;BME280;3549;42.162;24.726;2023-05-01T02:22:38;47613.25;;;-141.97;85.71
7018;BME280;3549;42.162;24.726;2023-05-01T02:25:07;47699.75;;;-141.97;85.10
7018;BME280;3549;42.162;24.726;2023-05-01T02:27:43;47728.59;;;-141.97;85.21
7018;BME280;3549;42.162;24.726;2023-05-01T02:30:11;47665.16;;;-141.97;85.08
7018;BME280;3549;42.162;24.726;2023-05-01T02:32:36;47659.38;;;-141.97;86.13
7018;BME280;3549;42.162;24.726;2023-05-01T02:35:02;47611.34;;;-141.97;86.23
7018;BME280;3549;42.162;24.726;2023-05-01T02:37:28;47647.84;;;-141.97;86.44
7018;BME280;3549;42.162;24.726;2023-05-01T02:39:55;47647.84;;;-141.97;85.97
7018;BME280;3549;42.162;24.726;2023-05-01T02:42:23;47763.19;;;-141.97;87.04
7018;BME280;3549;42.162;24.726;2023-05-01T02:44:56;47628.63;;;-141.97;87.02
7018;BME280;3549;42.162;24.726;2023-05-01T02:47:23;47653.63;;;-141.97;87.84
7018;BME280;3549;42.162;24.726;2023-05-01T02:49:50;47653.63;;;-141.97;87.76
7018;BME280;3549;42.162;24.726;2023-05-01T02:52:17;47661.31;;;-141.97;87.58
7018;BME280;3549;42.162;24.726;2023-05-01T02:54:44;47642.09;;;-141.97;87.50
7018;BME280;3549;42.162;24.726;2023-05-01T02:57:10;47674.78;;;-141.97;87.33
7018;BME280;3549;42.162;24.726;2023-05-01T02:59:36;47622.88;;;-141.97;87.90
7018;BME280;3549;42.162;24.726;2023-05-01T03:02:01;47669.00;;;-141.97;88.04
7018;BME280;3549;42.162;24.726;2023-05-01T03:04:27;47576.75;;;-141.97;88.09
7018;BME280;3549;42.162;24.726;2023-05-01T03:06:53;47653.63;;;-141.97;88.17
7018;BME280;3549;42.162;24.726;2023-05-01T03:09:19;47659.38;;;-141.97;88.14
7018;BME280;3549;42.162;24.726;2023-05-01T03:11:44;47669.00;;;-141.97;87.48
7018;BME280;3549;42.162;24.726;2023-05-01T03:14:10;47661.31;;;-141.97;87.47
7018;BME280;3549;42.162;24.726;2023-05-01T03:16:35;47682.47;;;-141.97;87.44
7018;BME280;3549;42.162;24.726;2023-05-01T03:19:01;47684.38;;;-141.97;86.90
7018;BME280;3549;42.162;24.726;2023-05-01T03:21:26;47672.84;;;-141.97;87.10
7018;BME280;3549;42.162;24.726;2023-05-01T03:23:52;47651.69;;;-141.97;87.30
7018;BME280;3549;42.162;24.726;2023-05-01T03:26:18;47659.38;;;-141.97;87.44
7018;BME280;3549;42.162;24.726;2023-05-01T03:28:43;47663.22;;;-141.97;87.45
7018;BME280;3549;42.162;24.726;2023-05-01T03:31:08;47642.09;;;-141.97;87.04
7018;BME280;3549;42.162;24.726;2023-05-01T03:33:34;47622.88;;;-141.97;86.36
7018;BME280;3549;42.162;24.726;2023-05-01T03:36:04;47651.69;;;-141.97;86.26
7018;BME280;3549;42.162;24.726;2023-05-01T03:38:31;47669.00;;;-141.97;86.26
7018;BME280;3549;42.162;24.726;2023-05-01T03:40:58;47642.09;;;-141.97;86.34
7018;BME280;3549;42.162;24.726;2023-05-01T03:43:24;47803.56;;;-141.97;86.08
7018;BME280;3549;42.162;24.726;2023-05-01T03:45:51;47657.47;;;-141.97;86.82
7018;BME280;3549;42.162;24.726;2023-05-01T03:48:17;47657.47;;;-141.97;87.21
7018;BME280;3549;42.162;24.726;2023-05-01T03:50:43;47645.94;;;-141.97;87.07
7018;BME280;3549;42.162;24.726;2023-05-01T03:53:08;47634.41;;;-141.97;88.31
7018;BME280;3549;42.162;24.726;2023-05-01T03:55:34;47676.69;;;-141.97;88.92
7018;BME280;3549;42.162;24.726;2023-05-01T03:57:59;47655.53;;;-141.97;89.08
7018;BME280;3549;42.162;24.726;2023-05-01T04:00:25;47595.97;;;-141.97;88.54
7018;BME280;3549;42.162;24.726;2023-05-01T04:02:51;47661.31;;;-141.97;87.70
7018;BME280;3549;42.162;24.726;2023-05-01T04:05:17;47684.38;;;-141.97;86.92
7018;BME280;3549;42.162;24.726;2023-05-01T04:07:43;47663.22;;;-141.97;85.77
7018;BME280;3549;42.162;24.726;2023-05-01T04:10:08;47640.16;;;-141.97;85.34
7018;BME280;3549;42.162;24.726;2023-05-01T04:12:34;47657.47;;;-141.97;85.10
7018;BME280;3549;42.162;24.726;2023-05-01T04:15:00;47644.00;;;-141.97;84.57
7018;BME280;3549;42.162;24.726;2023-05-01T04:17:26;47653.63;;;-141.97;84.30
7018;BME280;3549;42.162;24.726;2023-05-01T04:19:52;47638.25;;;-141.97;84.31
7018;BME280;3549;42.162;24.726;2023-05-01T04:22:20;47642.09;;;-141.97;84.09
7018;BME280;3549;42.162;24.726;2023-05-01T04:24:46;47678.63;;;-141.97;84.46
7018;BME280;3549;42.162;24.726;2023-05-01T04:27:11;47682.47;;;-141.97;84.54
7018;BME280;3549;42.162;24.726;2023-05-01T04:29:36;47640.16;;;-141.97;83.97
7018;BME280;3549;42.162;24.726;2023-05-01T04:32:02;47670.91;;;-141.97;83.51
7018;BME280;3549;42.162;24.726;2023-05-01T04:34:27;47657.47;;;-141.97;83.25
7018;BME280;3549;42.162;24.726;2023-05-01T04:36:54;47663.22;;;-141.97;82.71
7018;BME280;3549;42.162;24.726;2023-05-01T04:39:22;47674.78;;;-141.97;82.17
7018;BME280;3549;42.162;24.726;2023-05-01T04:41:47;47678.63;;;-141.97;81.54
7018;BME280;3549;42.162;24.726;2023-05-01T04:44:12;47676.69;;;-141.97;80.95
7018;BME280;3549;42.162;24.726;2023-05-01T04:46:38;47622.88;;;-141.97;80.33
7018;BME280;3549;42.162;24.726;2023-05-01T04:49:03;47653.63;;;-141.97;79.89
7018;BME280;3549;42.162;24.726;2023-05-01T04:51:29;47640.16;;;-141.97;79.87
7018;BME280;3549;42.162;24.726;2023-05-01T04:53:55;47669.00;;;-141.97;79.45
7018;BME280;3549;42.162;24.726;2023-05-01T04:56:20;47684.38;;;-141.97;78.79
7018;BME280;3549;42.162;24.726;2023-05-01T04:58:46;47661.31;;;-141.97;77.54
7018;BME280;3549;42.162;24.726;2023-05-01T05:01:11;47692.06;;;-141.97;77.56
7018;BME280;3549;42.162;24.726;2023-05-01T05:03:37;47669.00;;;-141.97;77.09
7018;BME280;3549;42.162;24.726;2023-05-01T05:06:02;47649.78;;;-141.97;76.03
7018;BME280;3549;42.162;24.726;2023-05-01T05:08:28;47661.31;;;-141.97;75.96
7018;BME280;3549;42.162;24.726;2023-05-01T05:10:57;47703.59;;;-141.97;75.99
7018;BME280;3549;42.162;24.726;2023-05-01T05:13:24;47638.25;;;-141.97;76.34
7018;BME280;3549;42.162;24.726;2023-05-01T05:15:49;47653.63;;;-141.97;76.22
7018;BME280;3549;42.162;24.726;2023-05-01T05:18:14;47622.88;;;-141.97;76.42
7018;BME280;3549;42.162;24.726;2023-05-01T05:20:40;47611.34;;;-141.97;75.70
7018;BME280;3549;42.162;24.726;2023-05-01T05:23:05;47661.31;;;-141.97;74.86
7018;BME280;3549;42.162;24.726;2023-05-01T05:25:31;47684.38;;;-141.97;74.12
7018;BME280;3549;42.162;24.726;2023-05-01T05:27:57;47651.69;;;-141.97;75.11
7018;BME280;3549;42.162;24.726;2023-05-01T05:30:23;47655.53;;;-141.97;75.19
7018;BME280;3549;42.162;24.726;2023-05-01T05:32:49;47603.66;;;-141.97;73.97
7018;BME280;3549;42.162;24.726;2023-05-01T05:35:14;47632.47;;;-141.97;75.12
7018;BME280;3549;42.162;24.726;2023-05-01T05:37:40;47676.69;;;-141.97;76.23
7018;BME280;3549;42.162;24.726;2023-05-01T05:40:06;47484.47;;;-141.97;74.73
7018;BME280;3549;42.162;24.726;2023-05-01T05:42:31;47672.84;;;-141.97;73.82
7018;BME280;3549;42.162;24.726;2023-05-01T05:44:58;47647.84;;;-141.97;73.62
7018;BME280;3549;42.162;24.726;2023-05-01T05:47:23;47634.41;;;-141.97;74.04
7018;BME280;3549;42.162;24.726;2023-05-01T05:49:48;47695.91;;;-141.97;73.13
7018;BME280;3549;42.162;24.726;2023-05-01T05:52:14;47634.41;;;-141.97;73.36
7018;BME280;3549;42.162;24.726;2023-05-01T05:54:39;47603.66;;;-141.97;73.91
7018;BME280;3549;42.162;24.726;2023-05-01T05:57:05;47670.91;;;-141.97;73.60
7018;BME280;3549;42.162;24.726;2023-05-01T05:59:30;47628.63;;;-141.97;72.20
7018;BME280;3549;42.162;24.726;2023-05-01T06:01:56;47718.97;;;-141.97;70.79
7018;BME280;3549;42.162;24.726;2023-05-01T06:04:21;47636.31;;;-141.97;69.18
7018;BME280;3549;42.162;24.726;2023-05-01T06:06:47;47622.88;;;-141.97;67.33
7018;BME280;3549;42.162;24.726;2023-05-01T06:09:13;47642.09;;;-141.97;65.82
7018;BME280;3549;42.162;24.726;2023-05-01T06:11:39;47599.81;;;-141.97;65.06
7018;BME280;3549;42.162;24.726;2023-05-01T06:14:04;47792.03;;;-141.97;63.80
7018;BME280;3549;42.162;24.726;2023-05-01T06:16:30;47603.66;;;-141.97;63.49
7018;BME280;3549;42.162;24.726;2023-05-01T06:18:56;47572.91;;;-141.97;62.95
7018;BME280;3549;42.162;24.726;2023-05-01T06:21:22;47603.66;;;-141.97;61.21
7018;BME280;3549;42.162;24.726;2023-05-01T06:23:47;47634.41;;;-141.97;61.27
7018;BME280;3549;42.162;24.726;2023-05-01T06:26:12;47611.34;;;-141.97;61.01
7018;BME280;3549;42.162;24.726;2023-05-01T06:28:38;47572.91;;;-141.97;59.32
7018;BME280;3549;42.162;24.726;2023-05-01T06:31:03;47597.88;;;-141.97;59.07
7018;BME280;3549;42.162;24.726;2023-05-01T06:33:29;47597.88;;;-141.97;58.92
7018;BME280;3549;42.162;24.726;2023-05-01T06:35:55;47607.50;;;-141.97;57.92
7018;BME280;3549;42.162;24.726;2023-05-01T06:38:23;47747.81;;;-141.97;57.75
7018;BME280;3549;42.162;24.726;2023-05-01T06:40:49;47584.44;;;-141.97;57.46
7018;BME280;3549;42.162;24.726;2023-05-01T06:43:14;47570.97;;;-141.97;56.91
7018;BME280;3549;42.162;24.726;2023-05-01T06:45:39;47601.72;;;-141.97;56.43
7018;BME280;3549;42.162;24.726;2023-05-01T06:48:06;47613.25;;;-141.97;56.07
7018;BME280;3549;42.162;24.726;2023-05-01T06:50:31;47597.88;;;-141.97;56.65
7018;BME280;3549;42.162;24.726;2023-05-01T06:52:57;47622.88;;;-141.97;56.84
7018;BME280;3549;42.162;24.726;2023-05-01T06:55:24;47615.19;;;-141.97;56.14
7018;BME280;3549;42.162;24.726;2023-05-01T06:57:49;47692.06;;;-141.97;54.39
7018;BME280;3549;42.162;24.726;2023-05-01T07:00:16;47544.06;;;-141.97;55.29
7018;BME280;3549;42.162;24.726;2023-05-01T07:02:43;47590.19;;;-141.97;55.80
7018;BME280;3549;42.162;24.726;2023-05-01T07:05:09;47484.47;;;-141.97;55.45
7018;BME280;3549;42.162;24.726;2023-05-01T07:07:34;47615.19;;;-141.97;54.06
7018;BME280;3549;42.162;24.726;2023-05-01T07:10:00;47584.44;;;-141.97;53.58
7018;BME280;3549;42.162;24.726;2023-05-01T07:12:26;47584.44;;;-141.97;53.30
7018;BME280;3549;42.162;24.726;2023-05-01T07:14:53;47611.34;;;-141.97;53.36
7018;BME280;3549;42.162;24.726;2023-05-01T07:17:21;47599.81;;;-141.97;52.43
7018;BME280;3549;42.162;24.726;2023-05-01T07:19:46;47597.88;;;-141.97;51.06
7018;BME280;3549;42.162;24.726;2023-05-01T07:22:11;47519.06;;;-141.97;50.98
7018;BME280;3549;42.162;24.726;2023-05-01T07:24:37;47436.44;;;-141.97;50.87
7018;BME280;3549;42.162;24.726;2023-05-01T07:27:02;47507.53;;;-141.97;49.89
7018;BME280;3549;42.162;24.726;2023-05-01T07:29:28;47546.00;;;-141.97;49.32
7018;BME280;3549;42.162;24.726;2023-05-01T07:31:54;47605.56;;;-141.97;50.00
7018;BME280;3549;42.162;24.726;2023-05-01T07:34:19;47619.03;;;-141.97;49.83
7018;BME280;3549;42.162;24.726;2023-05-01T07:36:44;47444.13;;;-141.97;50.46
7018;BME280;3549;42.162;24.726;2023-05-01T07:39:10;47588.28;;;-141.97;49.66
7018;BME280;3549;42.162;24.726;2023-05-01T07:41:36;47549.84;;;-141.97;48.61
7018;BME280;3549;42.162;24.726;2023-05-01T07:44:01;47542.16;;;-141.97;48.26
7018;BME280;3549;42.162;24.726;2023-05-01T07:46:27;47580.59;;;-141.97;47.32
7018;BME280;3549;42.162;24.726;2023-05-01T07:48:53;47461.41;;;-141.97;47.41
7018;BME280;3549;42.162;24.726;2023-05-01T07:51:19;47524.84;;;-141.97;46.94
7018;BME280;3549;42.162;24.726;2023-05-01T07:53:44;47546.00;;;-141.97;46.42
7018;BME280;3549;42.162;24.726;2023-05-01T07:56:11;47503.69;;;-141.97;46.65
7018;BME280;3549;42.162;24.726;2023-05-01T07:58:36;47567.13;;;-141.97;47.11
7018;BME280;3549;42.162;24.726;2023-05-01T08:01:02;47530.59;;;-141.97;47.75
7018;BME280;3549;42.162;24.726;2023-05-01T08:03:28;47471.03;;;-141.97;47.34
7018;BME280;3549;42.162;24.726;2023-05-01T08:05:54;47690.16;;;-141.97;45.88
7018;BME280;3549;42.162;24.726;2023-05-01T08:08:20;47557.53;;;-141.97;46.04
7018;BME280;3549;42.162;24.726;2023-05-01T08:10:46;47661.31;;;-141.97;45.77
7018;BME280;3549;42.162;24.726;2023-05-01T08:13:12;47526.75;;;-141.97;44.74
7018;BME280;3549;42.162;24.726;2023-05-01T08:15:37;47538.28;;;-141.97;44.44
7018;BME280;3549;42.162;24.726;2023-05-01T08:18:04;47461.41;;;-141.97;44.31
7018;BME280;3549;42.162;24.726;2023-05-01T08:20:30;47551.75;;;-141.97;44.56
7018;BME280;3549;42.162;24.726;2023-05-01T08:22:55;47553.69;;;-141.97;44.57
7018;BME280;3549;42.162;24.726;2023-05-01T08:25:20;47524.84;;;-141.97;45.63
7018;BME280;3549;42.162;24.726;2023-05-01T08:27:47;47474.88;;;-141.97;44.89
7018;BME280;3549;42.162;24.726;2023-05-01T08:30:13;47544.06;;;-141.97;44.25
7018;BME280;3549;42.162;24.726;2023-05-01T08:32:38;47469.09;;;-141.97;43.84
7018;BME280;3549;42.162;24.726;2023-05-01T08:35:04;47436.44;;;-141.97;42.42
7018;BME280;3549;42.162;24.726;2023-05-01T08:37:30;47536.38;;;-141.97;41.53
7018;BME280;3549;42.162;24.726;2023-05-01T08:39:55;47661.31;;;-141.97;40.60
7018;BME280;3549;42.162;24.726;2023-05-01T08:42:21;47665.16;;;-141.97;41.24
7018;BME280;3549;42.162;24.726;2023-05-01T08:44:46;47736.28;;;-141.97;41.00
7018;BME280;3549;42.162;24.726;2023-05-01T08:49:40;47538.28;;;-141.97;39.58
7018;BME280;3549;42.162;24.726;2023-05-01T08:52:16;47496.00;;;-141.97;39.07
7018;BME280;3549;42.162;24.726;2023-05-01T08:55:11;47453.72;;;-141.97;39.85
7018;BME280;3549;42.162;24.726;2023-05-01T08:57:45;47536.38;;;-141.97;40.38
7018;BME280;3549;42.162;24.726;2023-05-01T09:00:17;47505.63;;;-141.97;39.93
7018;BME280;3549;42.162;24.726;2023-05-01T09:02:47;47338.41;;;-141.97;39.42
7018;BME280;3549;42.162;24.726;2023-05-01T09:05:15;47686.31;;;-141.97;39.85
7018;BME280;3549;42.162;24.726;2023-05-01T09:07:42;47703.59;;;-141.97;40.11
7018;BME280;3549;42.162;24.726;2023-05-01T09:10:09;47669.00;;;-141.97;40.23
7018;BME280;3549;42.162;24.726;2023-05-01T09:12:36;47692.06;;;-141.97;39.57
7018;BME280;3549;42.162;24.726;2023-05-01T09:15:02;47505.63;;;-141.97;40.17
7018;BME280;3549;42.162;24.726;2023-05-01T09:17:28;47611.34;;;-141.97;40.17
7018;BME280;3549;42.162;24.726;2023-05-01T09:19:56;47595.97;;;-141.97;40.89
7018;BME280;3549;42.162;24.726;2023-05-01T09:22:22;47488.31;;;-141.97;41.53
7018;BME280;3549;42.162;24.726;2023-05-01T09:24:47;47346.09;;;-141.97;40.99
7018;BME280;3549;42.162;24.726;2023-05-01T09:27:13;47384.53;;;-141.97;40.36
7018;BME280;3549;42.162;24.726;2023-05-01T09:29:40;47530.59;;;-141.97;39.05
7018;BME280;3549;42.162;24.726;2023-05-01T09:34:39;47728.59;;;-141.97;39.43
7018;BME280;3549;42.162;24.726;2023-05-01T09:37:05;47463.34;;;-141.97;39.58
7018;BME280;3549;42.162;24.726;2023-05-01T09:39:33;47407.59;;;-141.97;39.93
7018;BME280;3549;42.162;24.726;2023-05-01T09:41:58;47315.34;;;-141.97;40.01
7018;BME280;3549;42.162;24.726;2023-05-01T09:44:25;47590.19;;;-141.97;40.94
7018;BME280;3549;42.162;24.726;2023-05-01T09:46:52;47544.06;;;-141.97;40.24
7018;BME280;3549;42.162;24.726;2023-05-01T09:49:18;47349.94;;;-141.97;41.04
7018;BME280;3549;42.162;24.726;2023-05-01T09:51:44;47569.06;;;-141.97;41.59
7018;BME280;3549;42.162;24.726;2023-05-01T09:54:19;47661.31;;;-141.97;41.26
7018;BME280;3549;42.162;24.726;2023-05-01T09:56:46;47557.53;;;-141.97;40.75
7018;BME280;3549;42.162;24.726;2023-05-01T09:59:19;47557.53;;;-141.97;42.05
7018;BME280;3549;42.162;24.726;2023-05-01T10:01:45;47743.97;;;-141.97;41.91
7018;BME280;3549;42.162;24.726;2023-05-01T10:04:12;47663.22;;;-141.97;40.89
7018;BME280;3549;42.162;24.726;2023-05-01T10:06:38;47555.59;;;-141.97;40.31
7018;BME280;3549;42.162;24.726;2023-05-01T10:09:05;47417.22;;;-141.97;39.96
7018;BME280;3549;42.162;24.726;2023-05-01T10:11:52;47451.81;;;-141.97;39.70
7018;BME280;3549;42.162;24.726;2023-05-01T10:14:18;47538.28;;;-141.97;39.88
7018;BME280;3549;42.162;24.726;2023-05-01T10:16:45;47542.16;;;-141.97;39.55
7018;BME280;3549;42.162;24.726;2023-05-01T10:19:11;47530.59;;;-141.97;39.13
7018;BME280;3549;42.162;24.726;2023-05-01T10:21:37;47538.28;;;-141.97;38.23
7018;BME280;3549;42.162;24.726;2023-05-01T10:24:03;47446.03;;;-141.97;37.28
7018;BME280;3549;42.162;24.726;2023-05-01T10:26:33;47549.84;;;-141.97;37.92
7018;BME280;3549;42.162;24.726;2023-05-01T10:29:00;47532.53;;;-141.97;38.16
7018;BME280;3549;42.162;24.726;2023-05-01T10:31:26;47549.84;;;-141.97;38.81
7018;BME280;3549;42.162;24.726;2023-05-01T10:33:53;47559.44;;;-141.97;39.14
7018;BME280;3549;42.162;24.726;2023-05-01T10:36:25;47549.84;;;-141.97;39.98
7018;BME280;3549;42.162;24.726;2023-05-01T10:38:53;47569.06;;;-141.97;40.11
7018;BME280;3549;42.162;24.726;2023-05-01T10:44:22;47557.53;;;-141.97;39.07
7018;BME280;3549;42.162;24.726;2023-05-01T10:46:50;47530.59;;;-141.97;38.67
7018;BME280;3549;42.162;24.726;2023-05-01T10:49:16;47542.16;;;-141.97;38.39
7018;BME280;3549;42.162;24.726;2023-05-01T10:51:57;47538.28;;;-141.97;38.46
7018;BME280;3549;42.162;24.726;2023-05-01T10:54:25;47534.44;;;-141.97;37.59
7018;BME280;3549;42.162;24.726;2023-05-01T10:56:51;47553.69;;;-141.97;37.65
7018;BME280;3549;42.162;24.726;2023-05-01T10:59:17;47526.75;;;-141.97;37.96
7018;BME280;3549;42.162;24.726;2023-05-01T11:01:44;47517.16;;;-141.97;37.59
7018;BME280;3549;42.162;24.726;2023-05-01T11:11:59;47376.84;;;-141.97;37.95
7018;BME280;3549;42.162;24.726;2023-05-01T11:14:25;47511.38;;;-141.97;38.32
7018;BME280;3549;42.162;24.726;2023-05-01T11:16:51;47524.84;;;-141.97;38.00
7018;BME280;3549;42.162;24.726;2023-05-01T11:21:44;47465.25;;;-141.97;36.94
7018;BME280;3549;42.162;24.726;2023-05-01T11:24:11;47507.53;;;-141.97;37.58
7018;BME280;3549;42.162;24.726;2023-05-01T11:26:39;47486.41;;;-141.97;37.34
7018;BME280;3549;42.162;24.726;2023-05-01T11:29:07;47542.16;;;-141.97;36.24
7018;BME280;3549;42.162;24.726;2023-05-01T11:31:34;47519.06;;;-141.97;38.17
7018;BME280;3549;42.162;24.726;2023-05-01T11:34:01;47424.91;;;-141.97;39.53
7018;BME280;3549;42.162;24.726;2023-05-01T11:36:27;47497.94;;;-141.97;41.41
7018;BME280;3549;42.162;24.726;2023-05-01T11:38:57;47542.16;;;-141.97;40.08
7018;BME280;3549;42.162;24.726;2023-05-01T11:41:26;47538.28;;;-141.97;38.79
7018;BME280;3549;42.162;24.726;2023-05-01T11:43:57;47734.34;;;-141.97;38.26
7018;BME280;3549;42.162;24.726;2023-05-01T11:46:27;47513.31;;;-141.97;38.24
7018;BME280;3549;42.162;24.726;2023-05-01T11:48:54;47513.31;;;-141.97;37.89
7018;BME280;3549;42.162;24.726;2023-05-01T11:51:20;47530.59;;;-141.97;37.88
7018;BME280;3549;42.162;24.726;2023-05-01T11:54:07;47532.53;;;-141.97;37.89
7018;BME280;3549;42.162;24.726;2023-05-01T11:56:34;47542.16;;;-141.97;37.46
7018;BME280;3549;42.162;24.726;2023-05-01T11:59:14;47534.44;;;-141.97;37.33
7018;BME280;3549;42.162;24.726;2023-05-01T12:01:42;47530.59;;;-141.97;36.59
7018;BME280;3549;42.162;24.726;2023-05-01T12:04:09;47496.00;;;-141.97;35.49
7018;BME280;3549;42.162;24.726;2023-05-01T12:06:42;47471.03;;;-141.97;34.82
7018;BME280;3549;42.162;24.726;2023-05-01T12:09:20;47405.69;;;-141.97;34.56
7018;BME280;3549;42.162;24.726;2023-05-01T12:11:48;47469.09;;;-141.97;34.29
7018;BME280;3549;42.162;24.726;2023-05-01T12:14:14;47415.28;;;-141.97;34.29
7018;BME280;3549;42.162;24.726;2023-05-01T12:16:41;47463.34;;;-141.97;33.90
7018;BME280;3549;42.162;24.726;2023-05-01T12:19:07;47453.72;;;-141.97;33.30
7018;BME280;3549;42.162;24.726;2023-05-01T12:21:33;47442.19;;;-141.97;33.11
7018;BME280;3549;42.162;24.726;2023-05-01T12:24:12;47486.41;;;-141.97;32.94
7018;BME280;3549;42.162;24.726;2023-05-01T12:26:40;47480.63;;;-141.97;32.07
7018;BME280;3549;42.162;24.726;2023-05-01T12:29:07;47634.41;;;-141.97;32.80
7018;BME280;3549;42.162;24.726;2023-05-01T12:31:36;47474.88;;;-141.97;33.53
7018;BME280;3549;42.162;24.726;2023-05-01T12:34:09;47419.13;;;-141.97;33.81
7018;BME280;3549;42.162;24.726;2023-05-01T12:36:35;47426.81;;;-141.97;32.86
7018;BME280;3549;42.162;24.726;2023-05-01T12:39:06;47451.81;;;-141.97;31.56
7018;BME280;3549;42.162;24.726;2023-05-01T12:41:40;47434.50;;;-141.97;31.09
7018;BME280;3549;42.162;24.726;2023-05-01T12:44:20;47444.13;;;-141.97;31.32
7018;BME280;3549;42.162;24.726;2023-05-01T12:46:59;47584.44;;;-141.97;31.50
7018;BME280;3549;42.162;24.726;2023-05-01T12:49:27;47444.13;;;-141.97;31.71
7018;BME280;3549;42.162;24.726;2023-05-01T12:51:54;47476.78;;;-141.97;30.82
7018;BME280;3549;42.162;24.726;2023-05-01T12:56:46;47453.72;;;-141.97;30.31
7018;BME280;3549;42.162;24.726;2023-05-01T12:59:26;47415.28;;;-141.97;28.87
7018;BME280;3549;42.162;24.726;2023-05-01T13:02:12;47436.44;;;-141.97;29.02
7018;BME280;3549;42.162;24.726;2023-05-01T13:04:40;47484.47;;;-141.97;32.02
7018;BME280;3549;42.162;24.726;2023-05-01T13:07:11;47522.91;;;-141.97;32.42
7018;BME280;3549;42.162;24.726;2023-05-01T13:09:37;47503.69;;;-141.97;33.41
7018;BME280;3549;42.162;24.726;2023-05-01T13:12:04;47472.94;;;-141.97;32.67
7018;BME280;3549;42.162;24.726;2023-05-01T13:14:38;47517.16;;;-141.97;32.37
7018;BME280;3549;42.162;24.726;2023-05-01T13:17:08;47432.59;;;-141.97;31.29
7018;BME280;3549;42.162;24.726;2023-05-01T13:19:34;47478.72;;;-141.97;30.82
7018;BME280;3549;42.162;24.726;2023-05-01T13:22:00;47307.66;;;-141.97;30.37
7018;BME280;3549;42.162;24.726;2023-05-01T13:24:39;47442.19;;;-141.97;30.31
7018;BME280;3549;42.162;24.726;2023-05-01T13:27:07;47442.19;;;-141.97;30.95